Time;durP1;ratioP1;P1;durP2;ratioP2;P2;SDS_P1;SDS_P2;PMS_P1;PMS_P2;Temp;Humidity;BMP_temperature;BMP_pressure;BME280_temperature;BME280_humidity;BME280_pressure;Samples;Min_cycle;Max_cycle;Signal;HPM_P1;HPM_P2
2021/12/02 00:00:30;;;;;;;;;;;20.20;51.20;;;;;;3135301;28;19921;-61
2021/12/02 00:02:06;;;;;;;;;;;20.20;51.10;;;;;;3138365;28;19985;-61
2021/12/02 00:03:38;;;;;;;;;;;20.30;51.40;;;;;;3153375;28;19931;-63
2021/12/02 00:05:10;;;;;;;;;;;20.30;51.30;;;;;;3148811;28;20396;-60
2021/12/02 00:06:41;;;;;;;;;;;20.30;51.30;;;;;;3147409;28;19924;-61
2021/12/02 00:08:13;;;;;;;;;;;20.30;51.10;;;;;;3148759;28;20265;-61
2021/12/02 00:09:45;;;;;;;;;;;20.30;51.00;;;;;;3148155;28;19925;-61
2021/12/02 00:11:17;;;;;;;;;;;20.40;51.00;;;;;;3147532;28;19931;-60
2021/12/02 00:12:50;;;;;;;;;;;20.40;51.00;;;;;;3148215;28;19932;-60
2021/12/02 00:14:25;;;;;;;;;;;20.30;51.10;;;;;;3147923;28;19924;-61
2021/12/02 00:16:01;;;;;;;;;;;20.40;51.10;;;;;;3145171;28;19932;-61
2021/12/02 00:17:38;;;;;;;;;;;20.40;51.40;;;;;;3138579;28;19925;-59
2021/12/02 00:21:05;;;;;;;;;;;20.40;51.20;;;;;;3144998;28;19932;-60
2021/12/02 00:22:43;;;;;;;;;;;20.50;51.20;;;;;;3154816;28;19924;-60
2021/12/02 00:24:18;;;;;;;;;;;20.50;51.10;;;;;;3148352;28;19929;-61
2021/12/02 00:25:50;;;;;;;;;;;20.50;51.20;;;;;;3148751;28;19930;-61
2021/12/02 00:27:21;;;;;;;;;;;20.50;51.40;;;;;;3147665;28;20392;-59
2021/12/02 00:28:53;;;;;;;;;;;20.50;51.40;;;;;;3148337;28;19931;-61
2021/12/02 00:30:25;;;;;;;;;;;20.50;51.30;;;;;;3147108;28;19932;-57
2021/12/02 00:31:57;;;;;;;;;;;20.50;51.40;;;;;;3147071;28;19931;-59
2021/12/02 00:33:30;;;;;;;;;;;20.50;51.40;;;;;;3139593;28;19931;-56
2021/12/02 00:35:02;;;;;;;;;;;20.50;51.40;;;;;;3138087;28;19979;-58
2021/12/02 00:36:34;;;;;;;;;;;20.50;51.50;;;;;;3134692;28;20300;-62
2021/12/02 00:38:06;;;;;;;;;;;20.50;51.40;;;;;;3140941;28;19970;-60
2021/12/02 00:39:37;;;;;;;;;;;20.50;51.50;;;;;;3147702;28;20385;-59
2021/12/02 00:41:10;;;;;;;;;;;20.50;51.50;;;;;;3146606;28;19974;-59
2021/12/02 00:42:41;;;;;;;;;;;20.50;51.60;;;;;;3147529;28;19933;-58
2021/12/02 00:44:13;;;;;;;;;;;20.50;52.30;;;;;;3147823;28;19970;-58
2021/12/02 00:45:45;;;;;;;;;;;20.50;51.70;;;;;;3147320;28;19964;-59
2021/12/02 00:47:17;;;;;;;;;;;20.50;51.60;;;;;;3147311;28;19924;-62
2021/12/02 00:48:50;;;;;;;;;;;20.50;51.60;;;;;;3147601;28;19928;-57
2021/12/02 00:50:22;;;;;;;;;;;20.50;51.80;;;;;;3147863;28;19951;-58
2021/12/02 00:51:53;;;;;;;;;;;20.50;51.80;;;;;;3147671;28;19954;-59
2021/12/02 00:53:25;;;;;;;;;;;20.50;51.80;;;;;;3140021;28;20369;-58
2021/12/02 00:54:57;;;;;;;;;;;20.50;51.90;;;;;;3146481;28;19982;-59
2021/12/02 00:56:28;;;;;;;;;;;20.50;51.80;;;;;;3146824;28;20389;-61
2021/12/02 00:58:00;;;;;;;;;;;20.50;51.80;;;;;;3147259;28;20013;-56
2021/12/02 00:59:31;;;;;;;;;;;20.50;51.80;;;;;;3145365;28;20350;-60
2021/12/02 01:01:03;;;;;;;;;;;20.50;51.80;;;;;;3132972;28;19974;-61
2021/12/02 01:02:35;;;;;;;;;;;20.50;52.00;;;;;;3142243;28;19928;-61
2021/12/02 01:04:08;;;;;;;;;;;20.50;51.80;;;;;;3137017;28;19995;-56
2021/12/02 01:05:40;;;;;;;;;;;20.60;51.80;;;;;;3135090;28;19928;-57
2021/12/02 01:07:12;;;;;;;;;;;20.60;51.70;;;;;;3138736;28;20352;-61
2021/12/02 01:08:43;;;;;;;;;;;20.60;51.90;;;;;;3147874;28;19981;-58
2021/12/02 01:10:15;;;;;;;;;;;20.60;52.00;;;;;;3147484;28;20556;-58
2021/12/02 01:11:47;;;;;;;;;;;20.60;52.00;;;;;;3147256;28;20007;-58
2021/12/02 01:13:18;;;;;;;;;;;20.60;52.10;;;;;;3146957;28;19935;-59
2021/12/02 01:14:50;;;;;;;;;;;20.60;52.00;;;;;;3147821;28;19924;-61
2021/12/02 01:16:22;;;;;;;;;;;20.60;52.10;;;;;;3138429;28;19925;-60
2021/12/02 01:17:54;;;;;;;;;;;20.70;52.20;;;;;;3136463;28;19925;-54
2021/12/02 01:19:27;;;;;;;;;;;20.60;52.10;;;;;;3146842;28;19932;-60
2021/12/02 01:20:58;;;;;;;;;;;20.70;52.10;;;;;;3146909;28;19925;-56
2021/12/02 01:22:32;;;;;;;;;;;20.70;52.10;;;;;;3146857;28;20399;-59
2021/12/02 01:24:04;;;;;;;;;;;20.70;52.10;;;;;;3144608;28;20432;-58
2021/12/02 01:25:35;;;;;;;;;;;20.70;52.10;;;;;;3149551;28;19929;-58
2021/12/02 01:27:07;;;;;;;;;;;20.70;52.10;;;;;;3145800;28;19924;-59
2021/12/02 01:28:38;;;;;;;;;;;20.70;52.10;;;;;;3145406;28;19939;-58
2021/12/02 01:30:10;;;;;;;;;;;20.70;52.20;;;;;;3145936;28;19929;-58
2021/12/02 01:31:42;;;;;;;;;;;20.70;52.20;;;;;;3148419;28;19925;-58
2021/12/02 01:33:13;;;;;;;;;;;20.70;52.30;;;;;;3147616;28;19939;-60
2021/12/02 01:34:47;;;;;;;;;;;20.70;52.80;;;;;;3147805;28;20469;-61
2021/12/02 01:36:19;;;;;;;;;;;20.70;52.70;;;;;;3148540;28;19924;-59
2021/12/02 01:37:49;;;;;;;;;;;20.80;52.60;;;;;;3147354;28;20428;-58
2021/12/02 01:39:21;;;;;;;;;;;20.80;52.60;;;;;;3147226;28;19920;-60
2021/12/02 01:40:53;;;;;;;;;;;20.80;52.50;;;;;;3146167;28;19932;-58
2021/12/02 01:42:27;;;;;;;;;;;20.70;52.50;;;;;;3142314;28;19928;-57
2021/12/02 01:43:58;;;;;;;;;;;20.70;52.30;;;;;;3147300;28;19970;-57
2021/12/02 01:45:30;;;;;;;;;;;20.80;52.50;;;;;;3146648;28;19929;-60
2021/12/02 01:47:02;;;;;;;;;;;20.80;52.50;;;;;;3146126;28;19931;-58
2021/12/02 01:48:33;;;;;;;;;;;20.80;52.50;;;;;;3147098;28;19979;-59
2021/12/02 01:50:06;;;;;;;;;;;20.80;52.60;;;;;;3146635;28;19925;-57
2021/12/02 01:51:38;;;;;;;;;;;20.70;52.50;;;;;;3145648;28;19924;-60
2021/12/02 01:53:09;;;;;;;;;;;20.80;52.80;;;;;;3146773;28;19965;-58
2021/12/02 01:54:43;;;;;;;;;;;20.80;52.90;;;;;;3146551;28;19929;-57
2021/12/02 01:56:16;;;;;;;;;;;20.80;52.70;;;;;;3146136;28;19979;-60
2021/12/02 01:57:48;;;;;;;;;;;20.70;52.70;;;;;;3146448;28;19924;-59
2021/12/02 01:59:20;;;;;;;;;;;20.70;52.80;;;;;;3143750;28;19943;-58
2021/12/02 02:00:51;;;;;;;;;;;20.80;52.80;;;;;;3137453;28;19928;-58
2021/12/02 02:02:23;;;;;;;;;;;20.80;52.90;;;;;;3146415;28;19935;-57
2021/12/02 02:03:55;;;;;;;;;;;20.70;52.80;;;;;;3144722;28;19924;-59
2021/12/02 02:05:28;;;;;;;;;;;20.80;52.90;;;;;;3141228;28;19974;-59
2021/12/02 02:07:00;;;;;;;;;;;20.80;52.90;;;;;;3146991;28;19925;-58
2021/12/02 02:08:32;;;;;;;;;;;20.80;52.80;;;;;;3149284;28;19932;-58
2021/12/02 02:10:04;;;;;;;;;;;20.80;52.80;;;;;;3148513;28;20027;-58
2021/12/02 02:11:36;;;;;;;;;;;20.70;52.80;;;;;;3148962;28;19928;-59
2021/12/02 02:13:09;;;;;;;;;;;20.80;52.90;;;;;;3147926;28;19924;-58
2021/12/02 02:14:41;;;;;;;;;;;20.80;52.90;;;;;;3151476;28;19925;-60
2021/12/02 02:16:13;;;;;;;;;;;20.80;52.80;;;;;;3149197;28;20542;-58
2021/12/02 02:17:52;;;;;;;;;;;20.80;52.80;;;;;;3149695;28;20392;-60
2021/12/02 02:19:28;;;;;;;;;;;20.80;52.80;;;;;;3148924;28;19932;-58
2021/12/02 02:21:02;;;;;;;;;;;20.70;52.90;;;;;;3136936;28;20327;-59
2021/12/02 02:22:34;;;;;;;;;;;20.70;52.90;;;;;;3147684;28;19925;-56
2021/12/02 02:24:08;;;;;;;;;;;20.80;53.00;;;;;;3149483;28;19924;-59
2021/12/02 02:25:41;;;;;;;;;;;20.80;53.00;;;;;;3145288;28;19928;-58
2021/12/02 02:27:12;;;;;;;;;;;20.80;53.00;;;;;;3148681;28;19955;-58
2021/12/02 02:28:44;;;;;;;;;;;20.80;52.90;;;;;;3149306;28;20012;-58
2021/12/02 02:30:16;;;;;;;;;;;20.70;52.90;;;;;;3147690;28;20294;-60
2021/12/02 02:31:48;;;;;;;;;;;20.80;53.50;;;;;;3144448;28;19955;-58
2021/12/02 02:33:22;;;;;;;;;;;20.80;53.70;;;;;;3147608;28;19925;-60
2021/12/02 02:34:53;;;;;;;;;;;20.80;53.90;;;;;;3148983;28;19963;-56
2021/12/02 02:36:27;;;;;;;;;;;20.80;53.80;;;;;;3147568;28;20328;-59
2021/12/02 02:38:00;;;;;;;;;;;20.80;53.80;;;;;;3147864;28;19931;-58
2021/12/02 02:39:33;;;;;;;;;;;20.80;53.70;;;;;;3147713;28;19978;-58
2021/12/02 02:41:07;;;;;;;;;;;20.80;53.80;;;;;;3143362;28;19929;-59
2021/12/02 02:42:39;;;;;;;;;;;20.90;53.50;;;;;;3148335;28;19924;-58
2021/12/02 02:44:10;;;;;;;;;;;20.80;53.40;;;;;;3147675;28;20468;-59
2021/12/02 02:45:41;;;;;;;;;;;20.80;53.50;;;;;;3146964;28;19921;-57
2021/12/02 02:47:13;;;;;;;;;;;20.80;53.40;;;;;;3144105;28;19931;-59
2021/12/02 02:48:45;;;;;;;;;;;20.80;53.40;;;;;;3146889;28;19932;-60
2021/12/02 02:50:19;;;;;;;;;;;20.80;53.40;;;;;;3145272;28;20281;-57
2021/12/02 02:51:52;;;;;;;;;;;20.80;53.40;;;;;;3145204;28;20714;-59
2021/12/02 02:53:25;;;;;;;;;;;20.80;53.40;;;;;;3148549;28;19928;-59
2021/12/02 02:54:56;;;;;;;;;;;20.80;53.40;;;;;;3148424;28;19924;-57
2021/12/02 02:56:29;;;;;;;;;;;20.80;53.40;;;;;;3144035;28;20027;-59
2021/12/02 02:58:05;;;;;;;;;;;20.80;53.40;;;;;;3147690;28;19924;-59
2021/12/02 02:59:41;;;;;;;;;;;20.80;53.50;;;;;;3147441;28;19935;-60
2021/12/02 03:01:25;;;;;;;;;;;20.80;53.50;;;;;;3145996;28;20015;-56
2021/12/02 03:03:01;;;;;;;;;;;20.80;53.40;;;;;;3148530;28;19947;-59
2021/12/02 03:04:38;;;;;;;;;;;20.80;53.30;;;;;;3147013;28;19924;-57
2021/12/02 03:06:27;;;;;;;;;;;20.90;53.30;;;;;;3148579;28;19936;-61
2021/12/02 03:08:10;;;;;;;;;;;20.90;53.30;;;;;;3147080;28;19925;-60
2021/12/02 03:09:53;;;;;;;;;;;20.90;53.30;;;;;;3147314;28;19945;-60
2021/12/02 03:11:26;;;;;;;;;;;20.90;53.40;;;;;;3147090;28;19951;-58
2021/12/02 03:13:09;;;;;;;;;;;20.90;53.40;;;;;;3146817;28;19920;-59
2021/12/02 03:16:36;;;;;;;;;;;20.90;53.40;;;;;;3148221;28;19933;-60
2021/12/02 03:16:45;;;;;;;;;;;20.90;53.30;;;;;;3135417;28;20377;-58
2021/12/02 03:18:15;;;;;;;;;;;20.90;53.40;;;;;;3145027;28;20036;-59
2021/12/02 03:19:48;;;;;;;;;;;20.90;53.30;;;;;;3145302;28;19920;-58
2021/12/02 03:21:19;;;;;;;;;;;20.90;53.40;;;;;;3146959;28;19924;-59
2021/12/02 03:22:51;;;;;;;;;;;20.90;53.40;;;;;;3146241;28;20462;-60
2021/12/02 03:24:25;;;;;;;;;;;20.90;53.40;;;;;;3148578;28;19928;-60
2021/12/02 03:25:56;;;;;;;;;;;20.90;53.50;;;;;;3153723;28;19998;-58
2021/12/02 03:27:27;;;;;;;;;;;20.90;53.50;;;;;;3150328;28;19924;-58
2021/12/02 03:28:59;;;;;;;;;;;21.00;53.50;;;;;;3151236;28;19920;-59
2021/12/02 03:30:30;;;;;;;;;;;21.00;53.50;;;;;;3150996;28;19924;-58
2021/12/02 03:32:02;;;;;;;;;;;20.90;53.50;;;;;;3147284;28;19925;-59
2021/12/02 03:33:34;;;;;;;;;;;20.90;53.70;;;;;;3150697;28;19933;-61
2021/12/02 03:35:06;;;;;;;;;;;20.90;53.70;;;;;;3150033;28;19932;-59
2021/12/02 03:36:38;;;;;;;;;;;20.90;53.70;;;;;;3159736;28;19956;-61
2021/12/02 03:38:10;;;;;;;;;;;21.00;53.70;;;;;;3164032;28;19945;-61
2021/12/02 03:39:43;;;;;;;;;;;20.90;53.70;;;;;;3153215;28;19969;-60
2021/12/02 03:41:14;;;;;;;;;;;20.90;53.70;;;;;;3163823;28;19931;-59
2021/12/02 03:42:47;;;;;;;;;;;20.90;53.70;;;;;;3164818;28;20350;-61
2021/12/02 03:44:19;;;;;;;;;;;20.90;53.70;;;;;;3156099;28;19928;-60
2021/12/02 03:45:49;;;;;;;;;;;20.90;53.80;;;;;;3151107;28;19967;-60
2021/12/02 03:47:21;;;;;;;;;;;21.00;53.80;;;;;;3150999;28;19924;-57
2021/12/02 03:48:53;;;;;;;;;;;20.90;53.70;;;;;;3146755;28;19928;-60
2021/12/02 03:50:25;;;;;;;;;;;20.90;53.90;;;;;;3148899;28;21988;-61
2021/12/02 03:51:56;;;;;;;;;;;20.90;53.90;;;;;;3148821;28;19984;-60
2021/12/02 03:53:28;;;;;;;;;;;20.90;53.90;;;;;;3149980;28;19969;-59
2021/12/02 03:55:01;;;;;;;;;;;21.00;54.00;;;;;;3150496;28;19931;-59
2021/12/02 03:56:33;;;;;;;;;;;21.00;53.90;;;;;;3144306;28;19978;-60
2021/12/02 03:58:04;;;;;;;;;;;21.00;54.00;;;;;;3144500;28;19928;-57
2021/12/02 03:59:36;;;;;;;;;;;21.00;54.10;;;;;;3150233;28;19930;-58
2021/12/02 04:01:08;;;;;;;;;;;20.90;54.20;;;;;;3148991;28;19930;-58
2021/12/02 04:02:39;;;;;;;;;;;21.00;54.10;;;;;;3148863;28;19928;-60
2021/12/02 04:04:11;;;;;;;;;;;21.00;54.10;;;;;;3150109;28;20448;-59
2021/12/02 04:05:43;;;;;;;;;;;21.00;54.10;;;;;;3149763;28;19928;-60
2021/12/02 04:07:17;;;;;;;;;;;21.00;54.00;;;;;;3149656;28;19934;-55
2021/12/02 04:08:51;;;;;;;;;;;21.00;54.10;;;;;;3149514;28;19978;-60
2021/12/02 04:10:25;;;;;;;;;;;21.00;54.10;;;;;;3144268;28;19946;-59
2021/12/02 04:12:01;;;;;;;;;;;21.00;54.20;;;;;;3150163;28;19925;-58
2021/12/02 04:13:34;;;;;;;;;;;21.00;54.00;;;;;;3148747;28;19931;-59
2021/12/02 04:15:11;;;;;;;;;;;21.00;54.20;;;;;;3137396;28;20431;-60
2021/12/02 04:16:51;;;;;;;;;;;21.00;54.40;;;;;;3170246;22;19933;-60
2021/12/02 04:18:23;;;;;;;;;;;21.00;54.20;;;;;;3144526;28;19924;-62
2021/12/02 04:19:55;;;;;;;;;;;21.00;54.20;;;;;;3157828;28;19924;-62
2021/12/02 04:21:27;;;;;;;;;;;21.00;54.30;;;;;;3152667;28;19978;-62
2021/12/02 04:22:58;;;;;;;;;;;21.00;54.40;;;;;;3148161;28;20380;-63
2021/12/02 04:24:30;;;;;;;;;;;21.00;54.30;;;;;;3148481;28;20106;-63
2021/12/02 04:26:03;;;;;;;;;;;21.00;54.40;;;;;;3147669;28;20346;-62
2021/12/02 04:27:35;;;;;;;;;;;21.10;54.40;;;;;;3148368;28;20291;-62
2021/12/02 04:29:06;;;;;;;;;;;21.10;54.40;;;;;;3148487;28;19936;-62
2021/12/02 04:30:38;;;;;;;;;;;21.00;54.50;;;;;;3147563;28;20402;-62
2021/12/02 04:32:10;;;;;;;;;;;21.00;54.50;;;;;;3147585;28;19928;-63
2021/12/02 04:33:41;;;;;;;;;;;21.00;54.60;;;;;;3146252;28;19925;-62
2021/12/02 04:35:13;;;;;;;;;;;21.00;54.60;;;;;;3143025;28;20019;-62
2021/12/02 04:36:45;;;;;;;;;;;21.00;54.70;;;;;;3145132;28;19974;-61
2021/12/02 04:38:17;;;;;;;;;;;21.00;55.80;;;;;;3146098;28;20576;-62
2021/12/02 04:39:48;;;;;;;;;;;21.00;55.90;;;;;;3143881;28;19931;-62
2021/12/02 04:41:21;;;;;;;;;;;21.00;55.40;;;;;;3146533;28;19932;-62
2021/12/02 04:42:54;;;;;;;;;;;21.00;55.50;;;;;;3156290;28;19930;-62
2021/12/02 04:44:25;;;;;;;;;;;21.00;55.50;;;;;;3155230;28;20380;-61
2021/12/02 04:45:57;;;;;;;;;;;21.00;55.40;;;;;;3156438;28;19932;-62
2021/12/02 04:47:28;;;;;;;;;;;21.00;55.70;;;;;;3160708;28;20384;-62
2021/12/02 04:49:00;;;;;;;;;;;21.00;55.90;;;;;;3150915;28;19977;-62
2021/12/02 04:50:32;;;;;;;;;;;21.00;55.90;;;;;;3153885;28;19930;-62
2021/12/02 04:52:04;;;;;;;;;;;21.00;55.90;;;;;;3144127;28;19924;-62
2021/12/02 04:53:35;;;;;;;;;;;21.00;55.80;;;;;;3155941;28;19924;-62
2021/12/02 04:55:08;;;;;;;;;;;21.00;55.90;;;;;;3152741;28;19934;-62
2021/12/02 04:56:41;;;;;;;;;;;21.10;55.80;;;;;;3159860;28;19931;-62
2021/12/02 04:58:12;;;;;;;;;;;21.00;55.70;;;;;;3154905;28;19970;-62
2021/12/02 04:59:44;;;;;;;;;;;21.10;55.60;;;;;;3146226;28;19982;-60
2021/12/02 05:01:15;;;;;;;;;;;21.10;55.60;;;;;;3146514;28;20402;-61
2021/12/02 05:02:46;;;;;;;;;;;21.10;55.50;;;;;;3149619;28;19946;-62
2021/12/02 05:04:18;;;;;;;;;;;21.10;55.40;;;;;;3153500;28;19977;-61
2021/12/02 05:05:49;;;;;;;;;;;21.20;55.30;;;;;;3147608;28;19924;-62
2021/12/02 05:07:21;;;;;;;;;;;21.20;55.30;;;;;;3146827;28;19928;-61
2021/12/02 05:08:53;;;;;;;;;;;21.20;55.40;;;;;;3147613;28;19928;-62
2021/12/02 05:10:24;;;;;;;;;;;21.20;55.20;;;;;;3152622;28;19994;-62
2021/12/02 05:11:57;;;;;;;;;;;21.20;55.10;;;;;;3158815;28;19931;-62
2021/12/02 05:13:29;;;;;;;;;;;21.30;55.10;;;;;;3152514;28;19930;-60
2021/12/02 05:15:00;;;;;;;;;;;21.30;55.10;;;;;;3151677;28;20527;-61
2021/12/02 05:16:31;;;;;;;;;;;21.30;55.00;;;;;;3153307;28;19974;-61
2021/12/02 05:18:03;;;;;;;;;;;21.30;55.00;;;;;;3151894;28;19972;-61
2021/12/02 05:19:35;;;;;;;;;;;21.20;55.00;;;;;;3153438;28;19924;-61
2021/12/02 05:21:06;;;;;;;;;;;21.20;55.20;;;;;;3148007;28;19925;-61
2021/12/02 05:22:38;;;;;;;;;;;21.20;55.30;;;;;;3147265;28;19928;-61
2021/12/02 05:24:10;;;;;;;;;;;21.20;55.30;;;;;;3147291;28;19930;-61
2021/12/02 05:25:43;;;;;;;;;;;21.20;55.20;;;;;;3142546;28;20621;-62
2021/12/02 05:27:16;;;;;;;;;;;21.20;55.30;;;;;;3134577;28;19924;-62
2021/12/02 05:28:48;;;;;;;;;;;21.20;55.20;;;;;;3135189;28;19932;-62
2021/12/02 05:30:20;;;;;;;;;;;21.10;56.10;;;;;;3134050;28;19924;-62
2021/12/02 05:31:51;;;;;;;;;;;21.10;56.20;;;;;;3135962;28;19928;-63
2021/12/02 05:33:23;;;;;;;;;;;21.10;55.00;;;;;;3139954;28;19932;-63
2021/12/02 05:34:54;;;;;;;;;;;21.10;55.70;;;;;;3136525;28;19925;-62
2021/12/02 05:36:25;;;;;;;;;;;21.10;55.80;;;;;;3146584;28;20373;-61
2021/12/02 05:37:57;;;;;;;;;;;21.20;55.90;;;;;;3146501;28;20304;-62
2021/12/02 05:39:29;;;;;;;;;;;21.20;55.40;;;;;;3147384;28;19930;-62
2021/12/02 05:41:00;;;;;;;;;;;21.20;55.00;;;;;;3148539;28;19930;-62
2021/12/02 05:42:35;;;;;;;;;;;21.30;55.10;;;;;;3146822;28;19931;-61
2021/12/02 05:44:06;;;;;;;;;;;21.60;54.40;;;;;;3149430;28;19928;-61
2021/12/02 05:45:38;;;;;;;;;;;21.90;53.70;;;;;;3146408;28;19929;-61
2021/12/02 05:47:09;;;;;;;;;;;22.20;52.90;;;;;;3156192;28;19928;-62
2021/12/02 05:48:40;;;;;;;;;;;22.40;52.60;;;;;;3154878;28;20403;-63
2021/12/02 05:50:12;;;;;;;;;;;22.70;52.20;;;;;;3151599;28;19969;-62
2021/12/02 05:51:45;;;;;;;;;;;22.90;51.90;;;;;;3158621;28;20346;-62
2021/12/02 05:53:16;;;;;;;;;;;23.00;51.40;;;;;;3140078;28;20378;-62
2021/12/02 05:54:48;;;;;;;;;;;23.20;51.20;;;;;;3142425;28;19936;-62
2021/12/02 05:56:20;;;;;;;;;;;23.20;51.10;;;;;;3145348;28;19931;-63
2021/12/02 05:57:53;;;;;;;;;;;23.30;50.90;;;;;;3145000;28;19939;-63
2021/12/02 05:59:24;;;;;;;;;;;23.40;50.60;;;;;;3144285;28;20019;-63
2021/12/02 06:00:56;;;;;;;;;;;23.50;50.90;;;;;;3145089;28;19920;-63
2021/12/02 06:02:28;;;;;;;;;;;23.50;51.40;;;;;;3142429;28;19928;-64
2021/12/02 06:03:59;;;;;;;;;;;23.50;50.80;;;;;;3140832;28;19955;-64
2021/12/02 06:05:31;;;;;;;;;;;23.60;50.60;;;;;;3142306;28;19936;-64
2021/12/02 06:07:03;;;;;;;;;;;23.60;50.50;;;;;;3137191;28;19936;-64
2021/12/02 06:08:36;;;;;;;;;;;23.60;50.50;;;;;;3141224;28;19931;-63
2021/12/02 06:10:08;;;;;;;;;;;23.60;50.00;;;;;;3145430;28;19932;-63
2021/12/02 06:11:40;;;;;;;;;;;23.60;50.10;;;;;;3145398;28;19925;-63
2021/12/02 06:13:13;;;;;;;;;;;23.70;50.20;;;;;;3134010;28;19931;-63
2021/12/02 06:14:44;;;;;;;;;;;23.80;50.00;;;;;;3140937;28;19954;-64
2021/12/02 06:16:16;;;;;;;;;;;23.80;49.90;;;;;;3145846;28;19931;-63
2021/12/02 06:17:50;;;;;;;;;;;23.90;49.80;;;;;;3155132;28;19925;-62
2021/12/02 06:19:22;;;;;;;;;;;24.00;49.60;;;;;;3139830;28;19931;-63
2021/12/02 06:20:54;;;;;;;;;;;24.00;49.70;;;;;;3149241;28;20388;-63
2021/12/02 06:22:26;;;;;;;;;;;23.80;50.30;;;;;;3156194;28;19931;-64
2021/12/02 06:23:57;;;;;;;;;;;23.90;50.40;;;;;;3149022;28;19942;-63
2021/12/02 06:25:47;;;;;;;;;;;23.90;50.50;;;;;;3150928;28;19924;-63
2021/12/02 06:27:19;;;;;;;;;;;23.80;50.60;;;;;;3140466;28;19931;-63
2021/12/02 06:28:54;;;;;;;;;;;23.50;51.60;;;;;;3143020;28;21545;-63
2021/12/02 06:30:29;;;;;;;;;;;23.20;52.30;;;;;;3157932;28;19928;-63
2021/12/02 06:32:00;;;;;;;;;;;23.10;52.90;;;;;;3155774;28;19938;-63
2021/12/02 06:33:32;;;;;;;;;;;22.90;53.50;;;;;;3146407;28;19971;-63
2021/12/02 06:35:04;;;;;;;;;;;22.80;54.10;;;;;;3143240;28;19990;-62
2021/12/02 06:36:37;;;;;;;;;;;22.80;54.00;;;;;;3146112;28;19924;-63
2021/12/02 06:38:09;;;;;;;;;;;22.70;54.90;;;;;;3150601;28;19935;-63
2021/12/02 06:39:40;;;;;;;;;;;22.60;55.40;;;;;;3147411;28;19925;-64
2021/12/02 06:41:12;;;;;;;;;;;22.60;55.50;;;;;;3158350;28;19928;-62
2021/12/02 06:42:44;;;;;;;;;;;22.50;55.70;;;;;;3154201;28;19933;-63
2021/12/02 06:44:17;;;;;;;;;;;22.50;55.80;;;;;;3146613;28;19954;-64
2021/12/02 06:45:49;;;;;;;;;;;22.50;55.40;;;;;;3144086;28;19932;-63
2021/12/02 06:47:24;;;;;;;;;;;22.40;55.10;;;;;;3149745;28;19929;-64
2021/12/02 06:48:56;;;;;;;;;;;22.30;54.70;;;;;;3148872;28;19925;-63
2021/12/02 06:50:28;;;;;;;;;;;22.30;54.90;;;;;;3159537;28;20284;-62
2021/12/02 06:52:00;;;;;;;;;;;22.20;54.80;;;;;;3149016;28;20382;-63
2021/12/02 06:53:32;;;;;;;;;;;22.20;55.30;;;;;;3134452;28;19929;-63
2021/12/02 06:55:03;;;;;;;;;;;22.20;55.00;;;;;;3145734;28;20305;-63
2021/12/02 06:56:34;;;;;;;;;;;22.20;54.60;;;;;;3146179;28;19941;-63
2021/12/02 06:58:06;;;;;;;;;;;22.20;54.60;;;;;;3146426;28;19925;-63
2021/12/02 06:59:39;;;;;;;;;;;22.20;54.50;;;;;;3147935;28;20011;-62
2021/12/02 07:01:11;;;;;;;;;;;22.20;54.20;;;;;;3147687;28;19936;-62
2021/12/02 07:02:43;;;;;;;;;;;22.10;53.10;;;;;;3147493;28;19925;-61
2021/12/02 07:04:15;;;;;;;;;;;22.10;52.80;;;;;;3142183;28;20001;-63
2021/12/02 07:05:46;;;;;;;;;;;22.10;52.40;;;;;;3148852;28;20004;-62
2021/12/02 07:07:18;;;;;;;;;;;22.10;52.10;;;;;;3148532;28;19924;-62
2021/12/02 07:08:50;;;;;;;;;;;22.10;52.00;;;;;;3149380;28;20384;-62
2021/12/02 07:10:23;;;;;;;;;;;22.10;52.10;;;;;;3148875;28;19944;-61
2021/12/02 07:11:55;;;;;;;;;;;22.00;52.00;;;;;;3148229;28;19959;-62
2021/12/02 07:13:27;;;;;;;;;;;22.10;52.00;;;;;;3149235;28;20343;-62
2021/12/02 07:14:59;;;;;;;;;;;22.00;52.00;;;;;;3149065;28;19952;-62
2021/12/02 07:16:32;;;;;;;;;;;22.00;51.90;;;;;;3155331;28;19924;-63
2021/12/02 07:18:12;;;;;;;;;;;22.00;51.80;;;;;;3146203;28;19924;-61
2021/12/02 07:19:43;;;;;;;;;;;22.00;51.90;;;;;;3146188;28;19983;-62
2021/12/02 07:21:15;;;;;;;;;;;22.00;51.80;;;;;;3148774;28;20396;-62
2021/12/02 07:22:47;;;;;;;;;;;22.00;51.80;;;;;;3146377;28;19931;-62
2021/12/02 07:24:18;;;;;;;;;;;22.00;51.80;;;;;;3142929;28;19929;-62
2021/12/02 07:25:52;;;;;;;;;;;21.90;51.80;;;;;;3138228;28;20416;-60
2021/12/02 07:27:24;;;;;;;;;;;22.00;51.80;;;;;;3136202;28;19924;-63
2021/12/02 07:28:55;;;;;;;;;;;21.90;51.80;;;;;;3136428;28;19924;-63
2021/12/02 07:30:28;;;;;;;;;;;21.90;51.40;;;;;;3135919;28;19929;-63
2021/12/02 07:32:01;;;;;;;;;;;21.90;51.30;;;;;;3138862;28;20598;-63
2021/12/02 07:33:33;;;;;;;;;;;21.90;51.30;;;;;;3148506;28;19947;-63
2021/12/02 07:35:08;;;;;;;;;;;21.90;51.30;;;;;;3139407;28;19924;-62
2021/12/02 07:36:40;;;;;;;;;;;21.90;51.40;;;;;;3148608;28;20001;-63
2021/12/02 07:38:12;;;;;;;;;;;21.90;51.40;;;;;;3148955;28;20023;-62
2021/12/02 07:39:44;;;;;;;;;;;21.90;51.30;;;;;;3148574;28;19978;-63
2021/12/02 07:41:15;;;;;;;;;;;21.90;51.30;;;;;;3148306;28;20540;-62
2021/12/02 07:42:48;;;;;;;;;;;21.80;51.40;;;;;;3148923;28;19925;-62
2021/12/02 07:44:19;;;;;;;;;;;21.80;51.40;;;;;;3153014;28;20400;-63
2021/12/02 07:45:53;;;;;;;;;;;21.80;51.40;;;;;;3147036;28;20573;-63
2021/12/02 07:47:24;;;;;;;;;;;21.80;51.30;;;;;;3149052;28;19924;-63
2021/12/02 07:48:56;;;;;;;;;;;21.80;51.20;;;;;;3148859;28;19921;-62
2021/12/02 07:50:27;;;;;;;;;;;21.80;51.20;;;;;;3148979;28;19932;-63
2021/12/02 07:52:00;;;;;;;;;;;21.80;51.10;;;;;;3148173;28;19925;-63
2021/12/02 07:53:32;;;;;;;;;;;21.80;51.10;;;;;;3148632;28;19925;-62
2021/12/02 07:55:05;;;;;;;;;;;21.80;51.10;;;;;;3148855;28;19964;-63
2021/12/02 07:56:36;;;;;;;;;;;21.80;51.00;;;;;;3148196;28;19932;-63
2021/12/02 07:58:09;;;;;;;;;;;21.80;51.10;;;;;;3148832;28;20384;-63
2021/12/02 07:59:41;;;;;;;;;;;21.80;51.10;;;;;;3148437;28;19928;-63
2021/12/02 08:01:14;;;;;;;;;;;21.70;51.10;;;;;;3146970;28;19924;-63
2021/12/02 08:02:46;;;;;;;;;;;21.70;51.10;;;;;;3150018;28;19924;-63
2021/12/02 08:04:18;;;;;;;;;;;21.70;51.10;;;;;;3149966;28;19931;-63
2021/12/02 08:05:49;;;;;;;;;;;21.70;51.00;;;;;;3159147;28;19928;-63
2021/12/02 08:07:20;;;;;;;;;;;21.70;50.70;;;;;;3160979;28;20015;-62
2021/12/02 08:08:52;;;;;;;;;;;21.70;50.60;;;;;;3160283;28;20394;-63
2021/12/02 08:10:23;;;;;;;;;;;21.70;50.60;;;;;;3161127;28;19924;-63
2021/12/02 08:11:58;;;;;;;;;;;21.70;50.80;;;;;;3160601;28;19973;-62
2021/12/02 08:13:31;;;;;;;;;;;21.60;50.70;;;;;;3161409;28;20010;-63
2021/12/02 08:15:03;;;;;;;;;;;21.70;50.60;;;;;;3161021;28;19924;-63
2021/12/02 08:16:36;;;;;;;;;;;21.70;51.20;;;;;;3159790;28;19924;-63
2021/12/02 08:18:08;;;;;;;;;;;21.70;50.60;;;;;;3161037;28;19970;-62
2021/12/02 08:19:39;;;;;;;;;;;21.70;50.60;;;;;;3161144;28;19924;-62
2021/12/02 08:21:11;;;;;;;;;;;21.70;50.60;;;;;;3153922;28;19932;-63
2021/12/02 08:22:43;;;;;;;;;;;21.60;50.60;;;;;;3137016;28;19924;-63
2021/12/02 08:24:15;;;;;;;;;;;21.60;50.60;;;;;;3135983;28;20388;-62
2021/12/02 08:25:47;;;;;;;;;;;21.60;49.90;;;;;;3148543;28;19950;-63
2021/12/02 08:27:19;;;;;;;;;;;21.50;49.10;;;;;;3153786;28;20278;-63
2021/12/02 08:28:51;;;;;;;;;;;21.50;49.30;;;;;;3157800;28;20307;-62
2021/12/02 08:30:25;;;;;;;;;;;21.50;49.40;;;;;;3152847;28;19932;-63
2021/12/02 08:31:59;;;;;;;;;;;21.50;49.60;;;;;;3145450;28;19925;-62
2021/12/02 08:33:32;;;;;;;;;;;21.50;49.60;;;;;;3135952;28;19944;-63
2021/12/02 08:35:03;;;;;;;;;;;21.50;49.60;;;;;;3138682;28;19932;-63
2021/12/02 08:36:42;;;;;;;;;;;21.50;49.60;;;;;;3147870;28;20340;-63
2021/12/02 08:38:16;;;;;;;;;;;21.50;49.70;;;;;;3148206;28;19928;-63
2021/12/02 08:39:48;;;;;;;;;;;21.50;49.80;;;;;;3148349;28;19924;-63
2021/12/02 08:41:20;;;;;;;;;;;21.40;49.70;;;;;;3147577;28;20399;-63
2021/12/02 08:42:52;;;;;;;;;;;21.50;49.70;;;;;;3148224;28;19931;-64
2021/12/02 08:44:25;;;;;;;;;;;21.40;49.80;;;;;;3150237;28;19928;-63
2021/12/02 08:45:56;;;;;;;;;;;21.40;49.90;;;;;;3157266;28;19928;-63
2021/12/02 08:47:29;;;;;;;;;;;21.40;49.90;;;;;;3160259;28;19928;-63
2021/12/02 08:49:01;;;;;;;;;;;21.40;49.90;;;;;;3152505;28;20291;-62
2021/12/02 08:50:33;;;;;;;;;;;21.40;50.00;;;;;;3146801;28;19925;-62
2021/12/02 08:52:05;;;;;;;;;;;21.30;50.10;;;;;;3142945;28;19924;-63
2021/12/02 08:53:37;;;;;;;;;;;21.30;50.10;;;;;;3154719;28;19924;-63
2021/12/02 08:55:10;;;;;;;;;;;21.40;50.10;;;;;;3155445;28;19924;-62
2021/12/02 08:56:42;;;;;;;;;;;21.30;49.50;;;;;;3158404;28;20354;-63
2021/12/02 08:58:14;;;;;;;;;;;21.30;49.40;;;;;;3154071;28;19924;-63
2021/12/02 08:59:46;;;;;;;;;;;21.30;49.40;;;;;;3151914;28;19928;-62